sensor_id;sensor_type;location;lat;lon;timestamp;pressure;altitude;pressure_sealevel;temperature
67599;BMP280;62026;39.230;9.122;2022-10-30T00:00:49;101693.75;;;21.01
67599;BMP280;62026;39.230;9.122;2022-10-30T00:03:16;101696.94;;;20.98
67599;BMP280;62026;39.230;9.122;2022-10-30T00:05:44;101694.88;;;21.05
67599;BMP280;62026;39.230;9.122;2022-10-30T00:08:12;101688.69;;;21.04
67599;BMP280;62026;39.230;9.122;2022-10-30T00:10:38;101687.28;;;21.02
67599;BMP280;62026;39.230;9.122;2022-10-30T00:13:04;101694.88;;;21.05
67599;BMP280;62026;39.230;9.122;2022-10-30T00:15:31;101692.13;;;21.00
67599;BMP280;62026;39.230;9.122;2022-10-30T00:17:57;101675.94;;;20.90
67599;BMP280;62026;39.230;9.122;2022-10-30T00:20:23;101686.22;;;20.98
67599;BMP280;62026;39.230;9.122;2022-10-30T00:22:49;101680.81;;;20.93
67599;BMP280;62026;39.230;9.122;2022-10-30T00:25:14;101679.47;;;20.95
67599;BMP280;62026;39.230;9.122;2022-10-30T00:27:40;101671.91;;;20.87
67599;BMP280;62026;39.230;9.122;2022-10-30T00:30:07;101683.53;;;20.98
67599;BMP280;62026;39.230;9.122;2022-10-30T00:32:34;101671.66;;;20.94
67599;BMP280;62026;39.230;9.122;2022-10-30T00:35:00;101674.91;;;20.96
67599;BMP280;62026;39.230;9.122;2022-10-30T00:37:26;101664.97;;;20.91
67599;BMP280;62026;39.230;9.122;2022-10-30T00:39:51;101658.72;;;20.85
67599;BMP280;62026;39.230;9.122;2022-10-30T00:42:17;101674.88;;;20.91
67599;BMP280;62026;39.230;9.122;2022-10-30T00:47:31;101669.78;;;20.89
67599;BMP280;62026;39.230;9.122;2022-10-30T00:52:37;101671.16;;;20.92
67599;BMP280;62026;39.230;9.122;2022-10-30T00:55:10;101670.84;;;20.93
67599;BMP280;62026;39.230;9.122;2022-10-30T00:57:39;101678.91;;;20.93
67599;BMP280;62026;39.230;9.122;2022-10-30T01:00:06;101674.34;;;20.89
67599;BMP280;62026;39.230;9.122;2022-10-30T01:02:34;101660.88;;;20.83
67599;BMP280;62026;39.230;9.122;2022-10-30T01:05:02;101669.78;;;20.89
67599;BMP280;62026;39.230;9.122;2022-10-30T01:07:28;101674.34;;;20.89
67599;BMP280;62026;39.230;9.122;2022-10-30T01:09:54;101670.00;;;20.82
67599;BMP280;62026;39.230;9.122;2022-10-30T01:12:20;101667.88;;;20.84
67599;BMP280;62026;39.230;9.122;2022-10-30T01:14:52;101665.78;;;20.92
67599;BMP280;62026;39.230;9.122;2022-10-30T01:28:07;101670.03;;;20.88
67599;BMP280;62026;39.230;9.122;2022-10-30T01:38:50;101657.91;;;20.85
67599;BMP280;62026;39.230;9.122;2022-10-30T01:41:17;101635.81;;;20.68
67599;BMP280;62026;39.230;9.122;2022-10-30T01:43:46;101656.03;;;20.85
67599;BMP280;62026;39.230;9.122;2022-10-30T01:57:05;101650.69;;;20.80
67599;BMP280;62026;39.230;9.122;2022-10-30T01:59:50;101651.72;;;20.79
67599;BMP280;62026;39.230;9.122;2022-10-30T02:02:16;101655.19;;;20.75
67599;BMP280;62026;39.230;9.122;2022-10-30T02:04:43;101639.84;;;20.70
67599;BMP280;62026;39.230;9.122;2022-10-30T02:07:10;101650.06;;;20.73
67599;BMP280;62026;39.230;9.122;2022-10-30T02:09:42;101653.00;;;20.72
67599;BMP280;62026;39.230;9.122;2022-10-30T02:12:12;101647.88;;;20.70
67599;BMP280;62026;39.230;9.122;2022-10-30T02:14:42;101655.19;;;20.75
67599;BMP280;62026;39.230;9.122;2022-10-30T02:17:09;101649.00;;;20.74
67599;BMP280;62026;39.230;9.122;2022-10-30T02:19:36;101649.53;;;20.76
67599;BMP280;62026;39.230;9.122;2022-10-30T02:22:03;101649.03;;;20.79
67599;BMP280;62026;39.230;9.122;2022-10-30T02:24:30;101656.53;;;20.77
67599;BMP280;62026;39.230;9.122;2022-10-30T02:26:56;101649.53;;;20.76
67599;BMP280;62026;39.230;9.122;2022-10-30T02:29:22;101640.38;;;20.67
67599;BMP280;62026;39.230;9.122;2022-10-30T02:31:48;101653.50;;;20.69
67599;BMP280;62026;39.230;9.122;2022-10-30T02:34:15;101649.47;;;20.66
67599;BMP280;62026;39.230;9.122;2022-10-30T02:36:42;101656.94;;;20.64
67599;BMP280;62026;39.230;9.122;2022-10-30T02:39:08;101630.59;;;20.51
67599;BMP280;62026;39.230;9.122;2022-10-30T02:41:35;101648.34;;;20.62
67599;BMP280;62026;39.230;9.122;2022-10-30T02:44:01;101639.50;;;20.62
67599;BMP280;62026;39.230;9.122;2022-10-30T02:46:27;101651.28;;;20.61
67599;BMP280;62026;39.230;9.122;2022-10-30T02:48:53;101637.56;;;20.57
67599;BMP280;62026;39.230;9.122;2022-10-30T02:51:19;101647.78;;;20.55
67599;BMP280;62026;39.230;9.122;2022-10-30T02:53:45;101637.56;;;20.57
67599;BMP280;62026;39.230;9.122;2022-10-30T02:56:13;101639.16;;;20.53
67599;BMP280;62026;39.230;9.122;2022-10-30T02:58:41;101636.41;;;20.48
67599;BMP280;62026;39.230;9.122;2022-10-30T03:01:09;101634.53;;;20.48
67599;BMP280;62026;39.230;9.122;2022-10-30T03:03:36;101633.22;;;20.46
67599;BMP280;62026;39.230;9.122;2022-10-30T03:06:04;101641.31;;;20.51
67599;BMP280;62026;39.230;9.122;2022-10-30T03:08:31;101630.25;;;20.47
67599;BMP280;62026;39.230;9.122;2022-10-30T03:10:59;101629.97;;;20.44
67599;BMP280;62026;39.230;9.122;2022-10-30T03:13:26;101639.41;;;20.52
67599;BMP280;62026;39.230;9.122;2022-10-30T03:15:58;101627.78;;;20.41
67599;BMP280;62026;39.230;9.122;2022-10-30T03:18:24;101627.84;;;20.46
67599;BMP280;62026;39.230;9.122;2022-10-30T03:20:55;101627.84;;;20.46
67599;BMP280;62026;39.230;9.122;2022-10-30T03:23:21;101630.47;;;20.41
67599;BMP280;62026;39.230;9.122;2022-10-30T03:25:47;101642.31;;;20.45
67599;BMP280;62026;39.230;9.122;2022-10-30T03:28:16;101622.94;;;20.38
67599;BMP280;62026;39.230;9.122;2022-10-30T03:30:42;101638.84;;;20.49
67599;BMP280;62026;39.230;9.122;2022-10-30T03:33:07;101643.41;;;20.49
67599;BMP280;62026;39.230;9.122;2022-10-30T03:35:35;101636.41;;;20.48
67599;BMP280;62026;39.230;9.122;2022-10-30T03:38:00;101641.25;;;20.46
67599;BMP280;62026;39.230;9.122;2022-10-30T03:40:26;101639.63;;;20.45
67599;BMP280;62026;39.230;9.122;2022-10-30T03:42:52;101634.50;;;20.43
67599;BMP280;62026;39.230;9.122;2022-10-30T03:45:18;101629.13;;;20.38
67599;BMP280;62026;39.230;9.122;2022-10-30T03:47:44;101619.91;;;20.34
67599;BMP280;62026;39.230;9.122;2022-10-30T03:50:10;101621.25;;;20.32
67599;BMP280;62026;39.230;9.122;2022-10-30T03:52:36;101640.91;;;20.37
67599;BMP280;62026;39.230;9.122;2022-10-30T03:55:02;101640.09;;;20.37
67599;BMP280;62026;39.230;9.122;2022-10-30T03:57:28;101637.44;;;20.42
67599;BMP280;62026;39.230;9.122;2022-10-30T04:00:07;101616.44;;;20.29
67599;BMP280;62026;39.230;9.122;2022-10-30T04:02:53;101632.66;;;20.44
67599;BMP280;62026;39.230;9.122;2022-10-30T04:05:21;101640.69;;;20.44
67599;BMP280;62026;39.230;9.122;2022-10-30T04:07:53;101631.53;;;20.40
67599;BMP280;62026;39.230;9.122;2022-10-30T04:10:19;101641.78;;;20.48
67599;BMP280;62026;39.230;9.122;2022-10-30T04:12:45;101642.59;;;20.48
67599;BMP280;62026;39.230;9.122;2022-10-30T04:15:11;101643.38;;;20.44
67599;BMP280;62026;39.230;9.122;2022-10-30T04:17:37;101645.50;;;20.42
67599;BMP280;62026;39.230;9.122;2022-10-30T04:20:04;101638.75;;;20.39
67599;BMP280;62026;39.230;9.122;2022-10-30T04:22:31;101644.34;;;20.33
67599;BMP280;62026;39.230;9.122;2022-10-30T04:24:56;101638.47;;;20.36
67599;BMP280;62026;39.230;9.122;2022-10-30T04:27:23;101636.28;;;20.33
67599;BMP280;62026;39.230;9.122;2022-10-30T04:29:49;101643.03;;;20.35
67599;BMP280;62026;39.230;9.122;2022-10-30T04:32:16;101645.66;;;20.30
67599;BMP280;62026;39.230;9.122;2022-10-30T04:34:42;101649.41;;;20.29
67599;BMP280;62026;39.230;9.122;2022-10-30T04:37:08;101645.94;;;20.29
67599;BMP280;62026;39.230;9.122;2022-10-30T04:39:34;101643.75;;;20.26
67599;BMP280;62026;39.230;9.122;2022-10-30T04:42:09;101645.88;;;20.24
67599;BMP280;62026;39.230;9.122;2022-10-30T04:44:35;101646.06;;;20.17
67599;BMP280;62026;39.230;9.122;2022-10-30T04:47:01;101642.09;;;20.20
67599;BMP280;62026;39.230;9.122;2022-10-30T04:49:27;101653.03;;;20.18
67599;BMP280;62026;39.230;9.122;2022-10-30T04:51:53;101643.88;;;20.14
67599;BMP280;62026;39.230;9.122;2022-10-30T04:54:20;101647.38;;;20.15
67599;BMP280;62026;39.230;9.122;2022-10-30T04:56:46;101644.16;;;20.13
67599;BMP280;62026;39.230;9.122;2022-10-30T04:59:12;101643.63;;;20.16
67599;BMP280;62026;39.230;9.122;2022-10-30T05:01:38;101653.81;;;20.14
67599;BMP280;62026;39.230;9.122;2022-10-30T05:04:05;101643.34;;;20.12
67599;BMP280;62026;39.230;9.122;2022-10-30T05:06:32;101653.25;;;20.11
67599;BMP280;62026;39.230;9.122;2022-10-30T05:08:58;101644.16;;;20.13
67599;BMP280;62026;39.230;9.122;2022-10-30T05:11:36;101642.25;;;20.13
67599;BMP280;62026;39.230;9.122;2022-10-30T05:14:02;101641.47;;;20.13
67599;BMP280;62026;39.230;9.122;2022-10-30T05:16:28;101635.03;;;20.14
67599;BMP280;62026;39.230;9.122;2022-10-30T05:18:55;101619.88;;;19.97
67599;BMP280;62026;39.230;9.122;2022-10-30T05:21:21;101638.00;;;20.12
67599;BMP280;62026;39.230;9.122;2022-10-30T05:23:47;101633.44;;;20.13
67599;BMP280;62026;39.230;9.122;2022-10-30T05:26:13;101624.81;;;20.10
67599;BMP280;62026;39.230;9.122;2022-10-30T05:28:39;101642.50;;;20.11
67599;BMP280;62026;39.230;9.122;2022-10-30T05:31:06;101637.16;;;20.11
67599;BMP280;62026;39.230;9.122;2022-10-30T05:33:50;101636.34;;;20.11
67599;BMP280;62026;39.230;9.122;2022-10-30T05:36:16;101636.66;;;20.15
67599;BMP280;62026;39.230;9.122;2022-10-30T05:38:42;101635.84;;;20.14
67599;BMP280;62026;39.230;9.122;2022-10-30T05:41:17;101633.97;;;20.15
67599;BMP280;62026;39.230;9.122;2022-10-30T05:43:43;101632.34;;;20.14
67599;BMP280;62026;39.230;9.122;2022-10-30T05:46:09;101640.88;;;20.10
67599;BMP280;62026;39.230;9.122;2022-10-30T05:48:36;101638.72;;;20.07
67599;BMP280;62026;39.230;9.122;2022-10-30T05:51:02;101636.06;;;20.07
67599;BMP280;62026;39.230;9.122;2022-10-30T05:53:29;101634.44;;;20.06
67599;BMP280;62026;39.230;9.122;2022-10-30T05:55:58;101624.69;;;20.00
67599;BMP280;62026;39.230;9.122;2022-10-30T05:58:29;101633.63;;;20.06
67599;BMP280;62026;39.230;9.122;2022-10-30T06:00:57;101621.03;;;20.06
67599;BMP280;62026;39.230;9.122;2022-10-30T06:03:44;101630.16;;;20.10
67599;BMP280;62026;39.230;9.122;2022-10-30T06:06:11;101628.06;;;20.13
67599;BMP280;62026;39.230;9.122;2022-10-30T06:08:37;101609.94;;;19.98
67599;BMP280;62026;39.230;9.122;2022-10-30T06:11:23;101623.47;;;20.08
67599;BMP280;62026;39.230;9.122;2022-10-30T06:13:53;101636.66;;;20.15
67599;BMP280;62026;39.230;9.122;2022-10-30T06:16:26;101640.22;;;20.20
67599;BMP280;62026;39.230;9.122;2022-10-30T06:19:18;101633.78;;;20.26
67599;BMP280;62026;39.230;9.122;2022-10-30T06:21:45;101645.34;;;20.27
67599;BMP280;62026;39.230;9.122;2022-10-30T06:24:38;101650.25;;;20.35
67599;BMP280;62026;39.230;9.122;2022-10-30T06:27:22;101646.56;;;20.41
67599;BMP280;62026;39.230;9.122;2022-10-30T06:29:47;101654.66;;;20.46
67599;BMP280;62026;39.230;9.122;2022-10-30T06:32:13;101650.41;;;20.50
67599;BMP280;62026;39.230;9.122;2022-10-30T06:34:41;101656.34;;;20.57
67599;BMP280;62026;39.230;9.122;2022-10-30T06:37:10;101662.66;;;20.68
67599;BMP280;62026;39.230;9.122;2022-10-30T06:39:37;101661.31;;;20.70
67599;BMP280;62026;39.230;9.122;2022-10-30T06:42:22;101651.28;;;20.61
67599;BMP280;62026;39.230;9.122;2022-10-30T06:45:05;101675.38;;;20.82
67599;BMP280;62026;39.230;9.122;2022-10-30T06:47:36;101676.22;;;20.93
67599;BMP280;62026;39.230;9.122;2022-10-30T06:50:07;101666.84;;;20.96
67599;BMP280;62026;39.230;9.122;2022-10-30T06:52:33;101681.78;;;21.13
67599;BMP280;62026;39.230;9.122;2022-10-30T06:55:01;101682.03;;;21.12
67599;BMP280;62026;39.230;9.122;2022-10-30T06:57:55;101683.63;;;21.18
67599;BMP280;62026;39.230;9.122;2022-10-30T07:00:48;101686.75;;;21.37
67599;BMP280;62026;39.230;9.122;2022-10-30T07:03:33;101682.13;;;21.27
67599;BMP280;62026;39.230;9.122;2022-10-30T07:06:00;101685.69;;;21.48
67599;BMP280;62026;39.230;9.122;2022-10-30T07:08:26;101684.88;;;21.42
67599;BMP280;62026;39.230;9.122;2022-10-30T07:10:55;101697.34;;;21.63
67599;BMP280;62026;39.230;9.122;2022-10-30T07:13:34;101701.94;;;21.78
67599;BMP280;62026;39.230;9.122;2022-10-30T07:16:24;101705.22;;;21.85
67599;BMP280;62026;39.230;9.122;2022-10-30T07:18:50;101711.97;;;21.93
67599;BMP280;62026;39.230;9.122;2022-10-30T07:21:16;101703.44;;;22.11
67599;BMP280;62026;39.230;9.122;2022-10-30T07:23:42;101707.22;;;22.20
67599;BMP280;62026;39.230;9.122;2022-10-30T07:26:24;101705.09;;;22.27
67599;BMP280;62026;39.230;9.122;2022-10-30T07:28:52;101702.66;;;22.31
67599;BMP280;62026;39.230;9.122;2022-10-30T07:31:19;101713.16;;;22.32
67599;BMP280;62026;39.230;9.122;2022-10-30T07:34:08;101703.22;;;22.48
67599;BMP280;62026;39.230;9.122;2022-10-30T07:36:47;101698.09;;;22.62
67599;BMP280;62026;39.230;9.122;2022-10-30T07:39:33;101700.81;;;22.67
67599;BMP280;62026;39.230;9.122;2022-10-30T07:42:13;101708.59;;;22.89
67599;BMP280;62026;39.230;9.122;2022-10-30T07:45:02;101702.88;;;23.15
67599;BMP280;62026;39.230;9.122;2022-10-30T07:47:48;101717.97;;;23.01
67599;BMP280;62026;39.230;9.122;2022-10-30T07:50:23;101706.13;;;23.07
67599;BMP280;62026;39.230;9.122;2022-10-30T07:52:49;101711.19;;;23.29
67599;BMP280;62026;39.230;9.122;2022-10-30T07:55:20;101714.66;;;23.45
67599;BMP280;62026;39.230;9.122;2022-10-30T07:57:46;101713.09;;;23.29
67599;BMP280;62026;39.230;9.122;2022-10-30T08:00:30;101716.06;;;23.22
67599;BMP280;62026;39.230;9.122;2022-10-30T08:03:05;101713.66;;;23.26
67599;BMP280;62026;39.230;9.122;2022-10-30T08:05:42;101715.69;;;23.59
67599;BMP280;62026;39.230;9.122;2022-10-30T08:08:11;101718.69;;;23.52
67599;BMP280;62026;39.230;9.122;2022-10-30T08:10:37;101720.41;;;23.87
67599;BMP280;62026;39.230;9.122;2022-10-30T08:13:03;101717.41;;;23.94
67599;BMP280;62026;39.230;9.122;2022-10-30T08:15:30;101715.63;;;23.74
67599;BMP280;62026;39.230;9.122;2022-10-30T08:17:58;101712.81;;;23.94
67599;BMP280;62026;39.230;9.122;2022-10-30T08:20:24;101709.22;;;24.04
67599;BMP280;62026;39.230;9.122;2022-10-30T08:22:52;101718.13;;;24.05
67599;BMP280;62026;39.230;9.122;2022-10-30T08:25:25;101718.16;;;24.00
67599;BMP280;62026;39.230;9.122;2022-10-30T08:28:01;101708.84;;;24.21
67599;BMP280;62026;39.230;9.122;2022-10-30T08:30:33;101710.84;;;24.73
67599;BMP280;62026;39.230;9.122;2022-10-30T08:33:06;101713.47;;;24.54
67599;BMP280;62026;39.230;9.122;2022-10-30T08:35:54;101711.44;;;24.36
67599;BMP280;62026;39.230;9.122;2022-10-30T08:38:25;101717.97;;;24.64
67599;BMP280;62026;39.230;9.122;2022-10-30T08:41:12;101711.44;;;24.36
67599;BMP280;62026;39.230;9.122;2022-10-30T08:43:44;101715.13;;;24.45
67599;BMP280;62026;39.230;9.122;2022-10-30T08:46:10;101707.66;;;24.71
67599;BMP280;62026;39.230;9.122;2022-10-30T08:48:36;101716.28;;;24.68
67599;BMP280;62026;39.230;9.122;2022-10-30T08:51:02;101687.81;;;24.81
67599;BMP280;62026;39.230;9.122;2022-10-30T08:53:35;101708.94;;;25.26
67599;BMP280;62026;39.230;9.122;2022-10-30T08:56:06;101700.03;;;25.44
67599;BMP280;62026;39.230;9.122;2022-10-30T08:58:44;101697.56;;;25.48
67599;BMP280;62026;39.230;9.122;2022-10-30T09:01:12;101696.88;;;24.95
67599;BMP280;62026;39.230;9.122;2022-10-30T09:03:56;101706.63;;;25.14
67599;BMP280;62026;39.230;9.122;2022-10-30T09:06:42;101702.84;;;25.39
67599;BMP280;62026;39.230;9.122;2022-10-30T09:09:40;101704.16;;;24.94
67599;BMP280;62026;39.230;9.122;2022-10-30T09:12:06;101698.56;;;24.86
67599;BMP280;62026;39.230;9.122;2022-10-30T09:14:40;101693.50;;;24.79
67599;BMP280;62026;39.230;9.122;2022-10-30T09:17:07;101691.66;;;25.22
67599;BMP280;62026;39.230;9.122;2022-10-30T09:19:35;101708.28;;;25.34
67599;BMP280;62026;39.230;9.122;2022-10-30T09:22:01;101706.81;;;25.23
67599;BMP280;62026;39.230;9.122;2022-10-30T09:24:28;101706.69;;;25.52
67599;BMP280;62026;39.230;9.122;2022-10-30T09:26:54;101707.06;;;25.45
67599;BMP280;62026;39.230;9.122;2022-10-30T09:29:25;101695.34;;;25.31
67599;BMP280;62026;39.230;9.122;2022-10-30T09:32:04;101699.97;;;25.31
67599;BMP280;62026;39.230;9.122;2022-10-30T09:34:40;101698.81;;;25.74
67599;BMP280;62026;39.230;9.122;2022-10-30T09:37:12;101684.16;;;25.38
67599;BMP280;62026;39.230;9.122;2022-10-30T09:39:42;101704.97;;;25.61
67599;BMP280;62026;39.230;9.122;2022-10-30T09:56:26;101685.03;;;25.33
67599;BMP280;62026;39.230;9.122;2022-10-30T10:01:57;101697.34;;;25.21
67599;BMP280;62026;39.230;9.122;2022-10-30T10:04:35;101694.16;;;24.95
67599;BMP280;62026;39.230;9.122;2022-10-30T10:07:22;101682.91;;;24.83
67599;BMP280;62026;39.230;9.122;2022-10-30T10:09:58;101686.88;;;24.95
67599;BMP280;62026;39.230;9.122;2022-10-30T10:12:47;101689.03;;;24.69
67599;BMP280;62026;39.230;9.122;2022-10-30T10:15:38;101686.16;;;24.85
67599;BMP280;62026;39.230;9.122;2022-10-30T10:18:16;101683.22;;;25.05
67599;BMP280;62026;39.230;9.122;2022-10-30T10:20:46;101682.81;;;24.93
67599;BMP280;62026;39.230;9.122;2022-10-30T10:23:18;101678.66;;;24.76
67599;BMP280;62026;39.230;9.122;2022-10-30T10:25:55;101676.38;;;24.89
67599;BMP280;62026;39.230;9.122;2022-10-30T10:31:03;101681.41;;;24.71
67599;BMP280;62026;39.230;9.122;2022-10-30T10:33:51;101664.19;;;24.67
67599;BMP280;62026;39.230;9.122;2022-10-30T10:44:23;101664.69;;;24.41
67599;BMP280;62026;39.230;9.122;2022-10-30T10:47:05;101662.81;;;24.41
67599;BMP280;62026;39.230;9.122;2022-10-30T10:49:59;101667.44;;;24.35
67599;BMP280;62026;39.230;9.122;2022-10-30T10:52:38;101652.31;;;24.40
67599;BMP280;62026;39.230;9.122;2022-10-30T10:55:13;101659.63;;;24.34
67599;BMP280;62026;39.230;9.122;2022-10-30T10:57:41;101652.31;;;24.40
67599;BMP280;62026;39.230;9.122;2022-10-30T11:00:16;101645.97;;;24.20
67599;BMP280;62026;39.230;9.122;2022-10-30T11:02:53;101649.75;;;24.24
67599;BMP280;62026;39.230;9.122;2022-10-30T11:05:55;101643.03;;;24.17
67599;BMP280;62026;39.230;9.122;2022-10-30T11:08:28;101644.69;;;24.08
67599;BMP280;62026;39.230;9.122;2022-10-30T11:10:58;101641.59;;;23.95
67599;BMP280;62026;39.230;9.122;2022-10-30T11:13:32;101636.41;;;23.99
67599;BMP280;62026;39.230;9.122;2022-10-30T11:18:24;101627.50;;;24.04
67599;BMP280;62026;39.230;9.122;2022-10-30T11:20:58;101623.47;;;24.01
67599;BMP280;62026;39.230;9.122;2022-10-30T11:23:31;101623.19;;;23.98
67599;BMP280;62026;39.230;9.122;2022-10-30T11:25:58;101624.84;;;23.93
67599;BMP280;62026;39.230;9.122;2022-10-30T11:28:55;101628.59;;;23.98
67599;BMP280;62026;39.230;9.122;2022-10-30T11:31:38;101625.94;;;23.92
67599;BMP280;62026;39.230;9.122;2022-10-30T11:34:24;101611.69;;;23.87
67599;BMP280;62026;39.230;9.122;2022-10-30T11:36:53;101618.94;;;23.91
67599;BMP280;62026;39.230;9.122;2022-10-30T11:39:29;101616.22;;;23.97
67599;BMP280;62026;39.230;9.122;2022-10-30T11:47:01;101610.94;;;23.81
67599;BMP280;62026;39.230;9.122;2022-10-30T11:52:03;101609.03;;;23.82
67599;BMP280;62026;39.230;9.122;2022-10-30T11:54:35;101617.41;;;23.80
67599;BMP280;62026;39.230;9.122;2022-10-30T11:57:03;101603.44;;;23.68
67599;BMP280;62026;39.230;9.122;2022-10-30T11:59:29;101619.28;;;23.80
67599;BMP280;62026;39.230;9.122;2022-10-30T12:02:02;101608.56;;;23.70
67599;BMP280;62026;39.230;9.122;2022-10-30T12:04:29;101599.91;;;23.73
67599;BMP280;62026;39.230;9.122;2022-10-30T12:09:49;101589.31;;;23.86
67599;BMP280;62026;39.230;9.122;2022-10-30T12:12:42;101594.66;;;23.91
67599;BMP280;62026;39.230;9.122;2022-10-30T12:15:16;101586.00;;;23.94
67599;BMP280;62026;39.230;9.122;2022-10-30T12:17:52;101585.03;;;23.80
67599;BMP280;62026;39.230;9.122;2022-10-30T12:20:19;101579.38;;;23.82
67599;BMP280;62026;39.230;9.122;2022-10-30T12:22:45;101581.16;;;23.91
67599;BMP280;62026;39.230;9.122;2022-10-30T12:25:30;101570.38;;;23.91
67599;BMP280;62026;39.230;9.122;2022-10-30T12:28:12;101577.66;;;23.91
67599;BMP280;62026;39.230;9.122;2022-10-30T12:30:56;101574.16;;;23.90
67599;BMP280;62026;39.230;9.122;2022-10-30T12:35:59;101564.53;;;23.79
67599;BMP280;62026;39.230;9.122;2022-10-30T12:38:32;101576.94;;;23.80
67599;BMP280;62026;39.230;9.122;2022-10-30T12:41:21;101571.56;;;23.75
67599;BMP280;62026;39.230;9.122;2022-10-30T12:49:10;101569.09;;;23.84
67599;BMP280;62026;39.230;9.122;2022-10-30T12:51:59;101568.09;;;23.70
67599;BMP280;62026;39.230;9.122;2022-10-30T12:54:34;101563.53;;;23.70
67599;BMP280;62026;39.230;9.122;2022-10-30T12:57:14;101565.78;;;23.58
67599;BMP280;62026;39.230;9.122;2022-10-30T13:00:01;101567.88;;;23.66
67599;BMP280;62026;39.230;9.122;2022-10-30T13:02:31;101570.56;;;23.71
67599;BMP280;62026;39.230;9.122;2022-10-30T13:05:05;101567.28;;;23.74
67599;BMP280;62026;39.230;9.122;2022-10-30T13:07:42;101557.66;;;23.63
67599;BMP280;62026;39.230;9.122;2022-10-30T13:12:50;101581.38;;;23.61
67599;BMP280;62026;39.230;9.122;2022-10-30T13:15:26;101567.41;;;23.54
67599;BMP280;62026;39.230;9.122;2022-10-30T13:17:57;101571.78;;;23.45
67599;BMP280;62026;39.230;9.122;2022-10-30T13:20:25;101564.47;;;23.50
67599;BMP280;62026;39.230;9.122;2022-10-30T13:25:23;101558.31;;;23.45
67599;BMP280;62026;39.230;9.122;2022-10-30T13:33:58;101565.28;;;23.51
67599;BMP280;62026;39.230;9.122;2022-10-30T13:36:28;101560.69;;;23.51
67599;BMP280;62026;39.230;9.122;2022-10-30T13:52:21;101568.38;;;23.29
67599;BMP280;62026;39.230;9.122;2022-10-30T13:54:58;101568.38;;;23.29
67599;BMP280;62026;39.230;9.122;2022-10-30T14:00:11;101562.22;;;23.19
67599;BMP280;62026;39.230;9.122;2022-10-30T14:10:53;101566.75;;;23.28
67599;BMP280;62026;39.230;9.122;2022-10-30T14:13:30;101558.97;;;23.27
67599;BMP280;62026;39.230;9.122;2022-10-30T14:16:33;101551.66;;;23.32
67599;BMP280;62026;39.230;9.122;2022-10-30T14:19:01;101571.81;;;23.35
67599;BMP280;62026;39.230;9.122;2022-10-30T14:24:14;101551.97;;;23.26
67599;BMP280;62026;39.230;9.122;2022-10-30T14:26:46;101544.38;;;23.28
67599;BMP280;62026;39.230;9.122;2022-10-30T14:29:44;101553.28;;;23.28
67599;BMP280;62026;39.230;9.122;2022-10-30T14:37:17;101548.25;;;23.11
67599;BMP280;62026;39.230;9.122;2022-10-30T14:39:44;101552.03;;;23.05
67599;BMP280;62026;39.230;9.122;2022-10-30T14:42:22;101550.97;;;23.11
67599;BMP280;62026;39.230;9.122;2022-10-30T14:53:15;101542.88;;;23.01
67599;BMP280;62026;39.230;9.122;2022-10-30T14:58:28;101540.25;;;22.91
67599;BMP280;62026;39.230;9.122;2022-10-30T15:12:36;101550.00;;;22.82
67599;BMP280;62026;39.230;9.122;2022-10-30T15:15:11;101554.28;;;22.83
67599;BMP280;62026;39.230;9.122;2022-10-30T15:17:44;101543.03;;;22.71
67599;BMP280;62026;39.230;9.122;2022-10-30T15:20:16;101551.06;;;22.81
67599;BMP280;62026;39.230;9.122;2022-10-30T15:22:43;101549.50;;;22.65
67599;BMP280;62026;39.230;9.122;2022-10-30T15:25:17;101540.34;;;22.61
67599;BMP280;62026;39.230;9.122;2022-10-30T15:27:46;101545.25;;;22.44
67599;BMP280;62026;39.230;9.122;2022-10-30T15:30:17;101538.72;;;22.70
67599;BMP280;62026;39.230;9.122;2022-10-30T15:32:43;101549.50;;;22.55
67599;BMP280;62026;39.230;9.122;2022-10-30T15:35:21;101548.41;;;22.71
67599;BMP280;62026;39.230;9.122;2022-10-30T15:38:09;101549.22;;;22.61
67599;BMP280;62026;39.230;9.122;2022-10-30T15:40:36;101542.81;;;22.47
67599;BMP280;62026;39.230;9.122;2022-10-30T15:43:04;101551.66;;;22.58
67599;BMP280;62026;39.230;9.122;2022-10-30T15:45:36;101548.94;;;22.68
67599;BMP280;62026;39.230;9.122;2022-10-30T15:48:16;101551.69;;;22.48
67599;BMP280;62026;39.230;9.122;2022-10-30T15:50:53;101539.03;;;22.48
67599;BMP280;62026;39.230;9.122;2022-10-30T15:53:32;101556.50;;;22.40
67599;BMP280;62026;39.230;9.122;2022-10-30T15:55:59;101547.91;;;22.38
67599;BMP280;62026;39.230;9.122;2022-10-30T15:58:25;101536.06;;;22.45
67599;BMP280;62026;39.230;9.122;2022-10-30T16:00:56;101553.00;;;22.65
67599;BMP280;62026;39.230;9.122;2022-10-30T16:03:22;101547.66;;;22.50
67599;BMP280;62026;39.230;9.122;2022-10-30T16:05:48;101545.75;;;22.51
67599;BMP280;62026;39.230;9.122;2022-10-30T16:08:19;101547.38;;;22.57
67599;BMP280;62026;39.230;9.122;2022-10-30T16:10:45;101546.25;;;22.68
67599;BMP280;62026;39.230;9.122;2022-10-30T16:13:17;101555.91;;;22.79
67599;BMP280;62026;39.230;9.122;2022-10-30T16:15:44;101542.44;;;22.79
67599;BMP280;62026;39.230;9.122;2022-10-30T16:18:18;101559.16;;;22.76
67599;BMP280;62026;39.230;9.122;2022-10-30T16:20:57;101552.16;;;22.75
67599;BMP280;62026;39.230;9.122;2022-10-30T16:23:26;101553.22;;;22.79
67599;BMP280;62026;39.230;9.122;2022-10-30T16:25:56;101558.34;;;22.70
67599;BMP280;62026;39.230;9.122;2022-10-30T16:28:33;101559.72;;;22.53
67599;BMP280;62026;39.230;9.122;2022-10-30T16:31:02;101558.94;;;22.52
67599;BMP280;62026;39.230;9.122;2022-10-30T16:33:30;101559.47;;;22.59
67599;BMP280;62026;39.230;9.122;2022-10-30T16:35:58;101565.94;;;22.53
67599;BMP280;62026;39.230;9.122;2022-10-30T16:38:27;101537.97;;;22.44
67599;BMP280;62026;39.230;9.122;2022-10-30T16:40:55;101571.59;;;22.47
67599;BMP280;62026;39.230;9.122;2022-10-30T16:43:25;101575.34;;;22.46
67599;BMP280;62026;39.230;9.122;2022-10-30T16:45:52;101556.50;;;22.40
67599;BMP280;62026;39.230;9.122;2022-10-30T16:48:24;101565.13;;;22.37
67599;BMP280;62026;39.230;9.122;2022-10-30T16:51:02;101562.19;;;22.44